Gvarv, Norway

4:04 PM CET on October 31, 2014 (GMT +0100)
Saetersboe | Change Station
CLOSE
Current Station
Personal Weather Station
Location: Gvarv, TELEMARK
Elevation: 180 ft
Nearby Weather Stations

Elev 180 ft 59.42 °N, 9.16 °E | Updated 10 minutes ago

Light Rain
Light Rain
41.5 °F
Feels Like 42 °F
N
0.0
Wind Variable Wind from SE
Gusts 0.0 mph

Today
High -- | Low -- °F
--% Chance of Precip.
Yesterday
High -- | Low -- °F
Precip. -- in
7:39 AM 4:32 PM
First Quarter, 56% visible
Pressure 30.21 in
Visibility 5.0 miles
Clouds Scattered Clouds 800 ft
Overcast 1500 ft
Windchill 42 °F
Dew Point 41 °F
Humidity 97%
Rainfall 0.15 in
Snow Depth Not available.
UV 0 out of 12
Pollen Not available.
Air Quality Not available.
Flu Activity Not available.
METAR ENNO 311450Z 31004KT 8000 3500NW -RA VCFG FEW000 SCT008 OVC015 05/04 Q1023

More Conditions Fewer Conditions

Pressure 30.21 in
Visibility 5.0 miles
Clouds Scattered Clouds 800 ft
Overcast 1500 ft
Windchill 42 °F
Dew Point 41 °F
Humidity 97%
Rainfall 0.15 in
Snow Depth Not available.
UV 0 out of 12
Pollen Not available.
Air Quality Not available.
Flu Activity Not available.
METAR ENNO 311450Z 31004KT 8000 3500NW -RA VCFG FEW000 SCT008 OVC015 05/04 Q1023

More Conditions Fewer Conditions

10-Day Weather Forecast

Almanac

Astronomy

Oct. 31, 2014 Rise Set
Actual Time
Civil Twilight
Nautical Twilight
Astronomical Twilight
Moon
Length of Visible Light
Length of Day
Tomorrow will be .
, % of the Moon is Illuminated

Today's Extremes

Country Highs Country Lows

Community

WunderPhotos

Upload Photos

1,766,626 photos uploaded!

WunderBlogs® & News

Nearby

Air Quality

  Air Quality AQ Index Pollutant
Not available.

Snow Depth

Station Depth Elevation

Earthquake Activity

City Distance Mag. Time & Date
Minimum magnitude displayed is 2.5.

Coastal Water Temperatures

Place Temperature

Nearby Weather Stations